sensor_id;sensor_type;location;lat;lon;timestamp;P1;durP1;ratioP1;P2;durP2;ratioP2
30743;SDS011;17486;46.738;7.622;2023-04-23T00:01:45;8.20;;;5.53;;
30743;SDS011;17486;46.738;7.622;2023-04-23T00:04:12;7.65;;;5.65;;
30743;SDS011;17486;46.738;7.622;2023-04-23T00:06:39;8.77;;;5.80;;
30743;SDS011;17486;46.738;7.622;2023-04-23T00:09:06;7.50;;;5.80;;
30743;SDS011;17486;46.738;7.622;2023-04-23T00:11:32;6.95;;;6.13;;
30743;SDS011;17486;46.738;7.622;2023-04-23T00:13:58;8.75;;;7.00;;
30743;SDS011;17486;46.738;7.622;2023-04-23T00:16:23;10.40;;;7.28;;
30743;SDS011;17486;46.738;7.622;2023-04-23T00:18:49;7.60;;;6.88;;
30743;SDS011;17486;46.738;7.622;2023-04-23T00:21:15;9.48;;;8.05;;
30743;SDS011;17486;46.738;7.622;2023-04-23T00:23:40;8.15;;;7.32;;
30743;SDS011;17486;46.738;7.622;2023-04-23T00:26:05;8.20;;;7.20;;
30743;SDS011;17486;46.738;7.622;2023-04-23T00:28:31;11.23;;;7.75;;
30743;SDS011;17486;46.738;7.622;2023-04-23T00:30:56;10.43;;;7.40;;
30743;SDS011;17486;46.738;7.622;2023-04-23T00:33:21;7.97;;;7.18;;
30743;SDS011;17486;46.738;7.622;2023-04-23T00:35:47;8.00;;;7.00;;
30743;SDS011;17486;46.738;7.622;2023-04-23T00:38:12;10.82;;;7.50;;
30743;SDS011;17486;46.738;7.622;2023-04-23T00:40:38;8.75;;;7.22;;
30743;SDS011;17486;46.738;7.622;2023-04-23T00:43:03;8.60;;;7.70;;
30743;SDS011;17486;46.738;7.622;2023-04-23T00:45:29;8.88;;;7.50;;
30743;SDS011;17486;46.738;7.622;2023-04-23T00:47:55;10.90;;;7.40;;
30743;SDS011;17486;46.738;7.622;2023-04-23T00:50:20;10.30;;;7.75;;
30743;SDS011;17486;46.738;7.622;2023-04-23T00:52:46;10.57;;;7.60;;
30743;SDS011;17486;46.738;7.622;2023-04-23T00:55:11;10.25;;;7.72;;
30743;SDS011;17486;46.738;7.622;2023-04-23T00:57:37;10.68;;;8.02;;
30743;SDS011;17486;46.738;7.622;2023-04-23T01:00:06;9.18;;;7.60;;
30743;SDS011;17486;46.738;7.622;2023-04-23T01:02:32;9.15;;;6.97;;
30743;SDS011;17486;46.738;7.622;2023-04-23T01:05:00;7.75;;;5.65;;
30743;SDS011;17486;46.738;7.622;2023-04-23T01:07:28;9.65;;;6.03;;
30743;SDS011;17486;46.738;7.622;2023-04-23T01:09:55;9.82;;;5.22;;
30743;SDS011;17486;46.738;7.622;2023-04-23T01:12:20;6.55;;;5.38;;
30743;SDS011;17486;46.738;7.622;2023-04-23T01:14:47;6.75;;;5.80;;
30743;SDS011;17486;46.738;7.622;2023-04-23T01:17:12;7.30;;;6.18;;
30743;SDS011;17486;46.738;7.622;2023-04-23T01:19:38;7.70;;;6.75;;
30743;SDS011;17486;46.738;7.622;2023-04-23T01:22:08;8.95;;;6.57;;
30743;SDS011;17486;46.738;7.622;2023-04-23T01:24:34;8.25;;;6.32;;
30743;SDS011;17486;46.738;7.622;2023-04-23T01:27:00;9.75;;;6.72;;
30743;SDS011;17486;46.738;7.622;2023-04-23T01:29:26;11.88;;;6.90;;
30743;SDS011;17486;46.738;7.622;2023-04-23T01:31:53;7.75;;;6.38;;
30743;SDS011;17486;46.738;7.622;2023-04-23T01:34:19;8.00;;;6.65;;
30743;SDS011;17486;46.738;7.622;2023-04-23T01:36:46;9.23;;;6.47;;
30743;SDS011;17486;46.738;7.622;2023-04-23T01:39:11;9.73;;;6.45;;
30743;SDS011;17486;46.738;7.622;2023-04-23T01:41:37;7.88;;;6.03;;
30743;SDS011;17486;46.738;7.622;2023-04-23T01:44:03;9.02;;;6.20;;
30743;SDS011;17486;46.738;7.622;2023-04-23T01:46:29;8.75;;;6.15;;
30743;SDS011;17486;46.738;7.622;2023-04-23T01:48:54;8.57;;;6.05;;
30743;SDS011;17486;46.738;7.622;2023-04-23T01:51:20;10.75;;;6.50;;
30743;SDS011;17486;46.738;7.622;2023-04-23T01:53:47;9.07;;;6.03;;
30743;SDS011;17486;46.738;7.622;2023-04-23T01:56:13;10.00;;;6.32;;
30743;SDS011;17486;46.738;7.622;2023-04-23T01:58:40;8.70;;;6.07;;
30743;SDS011;17486;46.738;7.622;2023-04-23T02:01:06;7.43;;;5.43;;
30743;SDS011;17486;46.738;7.622;2023-04-23T02:03:31;6.88;;;5.47;;
30743;SDS011;17486;46.738;7.622;2023-04-23T02:05:57;8.00;;;5.68;;
30743;SDS011;17486;46.738;7.622;2023-04-23T02:08:24;8.32;;;5.35;;
30743;SDS011;17486;46.738;7.622;2023-04-23T02:10:51;11.10;;;5.53;;
30743;SDS011;17486;46.738;7.622;2023-04-23T02:13:16;7.93;;;5.85;;
30743;SDS011;17486;46.738;7.622;2023-04-23T02:15:41;9.07;;;5.40;;
30743;SDS011;17486;46.738;7.622;2023-04-23T02:18:07;7.55;;;5.55;;
30743;SDS011;17486;46.738;7.622;2023-04-23T02:20:33;7.75;;;5.72;;
30743;SDS011;17486;46.738;7.622;2023-04-23T02:23:02;9.77;;;5.55;;
30743;SDS011;17486;46.738;7.622;2023-04-23T02:25:28;8.77;;;5.40;;
30743;SDS011;17486;46.738;7.622;2023-04-23T02:27:53;8.70;;;5.50;;
30743;SDS011;17486;46.738;7.622;2023-04-23T02:30:19;5.28;;;4.78;;
30743;SDS011;17486;46.738;7.622;2023-04-23T02:32:44;7.53;;;4.72;;
30743;SDS011;17486;46.738;7.622;2023-04-23T02:35:10;8.25;;;5.47;;
30743;SDS011;17486;46.738;7.622;2023-04-23T02:37:36;6.13;;;4.82;;
30743;SDS011;17486;46.738;7.622;2023-04-23T02:40:02;7.47;;;4.68;;
30743;SDS011;17486;46.738;7.622;2023-04-23T02:42:29;7.78;;;4.95;;
30743;SDS011;17486;46.738;7.622;2023-04-23T02:44:55;6.65;;;4.45;;
30743;SDS011;17486;46.738;7.622;2023-04-23T02:47:20;6.90;;;4.43;;
30743;SDS011;17486;46.738;7.622;2023-04-23T02:49:45;6.97;;;4.40;;
30743;SDS011;17486;46.738;7.622;2023-04-23T02:52:11;5.43;;;4.32;;
30743;SDS011;17486;46.738;7.622;2023-04-23T02:54:36;6.28;;;4.38;;
30743;SDS011;17486;46.738;7.622;2023-04-23T02:57:02;6.20;;;3.78;;
30743;SDS011;17486;46.738;7.622;2023-04-23T02:59:28;7.13;;;3.80;;
30743;SDS011;17486;46.738;7.622;2023-04-23T03:01:53;9.75;;;4.30;;
30743;SDS011;17486;46.738;7.622;2023-04-23T03:04:19;7.95;;;4.15;;
30743;SDS011;17486;46.738;7.622;2023-04-23T03:06:44;9.32;;;4.63;;
30743;SDS011;17486;46.738;7.622;2023-04-23T03:09:10;9.07;;;4.95;;
30743;SDS011;17486;46.738;7.622;2023-04-23T03:11:36;6.85;;;3.97;;
30743;SDS011;17486;46.738;7.622;2023-04-23T03:14:02;8.45;;;4.03;;
30743;SDS011;17486;46.738;7.622;2023-04-23T03:16:28;6.32;;;4.13;;
30743;SDS011;17486;46.738;7.622;2023-04-23T03:18:56;7.25;;;4.15;;
30743;SDS011;17486;46.738;7.622;2023-04-23T03:21:21;10.05;;;4.13;;
30743;SDS011;17486;46.738;7.622;2023-04-23T03:23:47;5.22;;;3.33;;
30743;SDS011;17486;46.738;7.622;2023-04-23T03:26:12;6.28;;;3.20;;
30743;SDS011;17486;46.738;7.622;2023-04-23T03:28:38;4.72;;;2.78;;
30743;SDS011;17486;46.738;7.622;2023-04-23T03:31:03;4.85;;;2.92;;
30743;SDS011;17486;46.738;7.622;2023-04-23T03:33:29;5.13;;;2.92;;
30743;SDS011;17486;46.738;7.622;2023-04-23T03:35:54;5.00;;;2.75;;
30743;SDS011;17486;46.738;7.622;2023-04-23T03:38:19;3.67;;;2.72;;
30743;SDS011;17486;46.738;7.622;2023-04-23T03:40:45;3.47;;;2.40;;
30743;SDS011;17486;46.738;7.622;2023-04-23T03:43:10;3.17;;;2.30;;
30743;SDS011;17486;46.738;7.622;2023-04-23T03:45:36;2.85;;;2.50;;
30743;SDS011;17486;46.738;7.622;2023-04-23T03:48:01;4.43;;;2.67;;
30743;SDS011;17486;46.738;7.622;2023-04-23T03:50:26;6.00;;;2.53;;
30743;SDS011;17486;46.738;7.622;2023-04-23T03:52:52;6.20;;;2.72;;
30743;SDS011;17486;46.738;7.622;2023-04-23T03:55:17;3.05;;;2.70;;
30743;SDS011;17486;46.738;7.622;2023-04-23T03:57:44;7.78;;;2.83;;
30743;SDS011;17486;46.738;7.622;2023-04-23T04:00:10;5.00;;;2.42;;
30743;SDS011;17486;46.738;7.622;2023-04-23T04:02:36;3.92;;;2.63;;
30743;SDS011;17486;46.738;7.622;2023-04-23T04:05:02;3.63;;;2.75;;
30743;SDS011;17486;46.738;7.622;2023-04-23T04:07:27;6.70;;;3.05;;
30743;SDS011;17486;46.738;7.622;2023-04-23T04:09:53;8.55;;;3.28;;
30743;SDS011;17486;46.738;7.622;2023-04-23T04:12:18;4.47;;;3.53;;
30743;SDS011;17486;46.738;7.622;2023-04-23T04:14:44;3.83;;;2.85;;
30743;SDS011;17486;46.738;7.622;2023-04-23T04:17:09;7.03;;;4.00;;
30743;SDS011;17486;46.738;7.622;2023-04-23T04:19:36;4.53;;;3.80;;
30743;SDS011;17486;46.738;7.622;2023-04-23T04:22:02;6.40;;;3.53;;
30743;SDS011;17486;46.738;7.622;2023-04-23T04:24:27;4.65;;;3.45;;
30743;SDS011;17486;46.738;7.622;2023-04-23T04:26:56;5.25;;;3.67;;
30743;SDS011;17486;46.738;7.622;2023-04-23T04:29:22;3.58;;;3.28;;
30743;SDS011;17486;46.738;7.622;2023-04-23T04:31:48;5.78;;;3.38;;
30743;SDS011;17486;46.738;7.622;2023-04-23T04:34:13;7.28;;;4.00;;
30743;SDS011;17486;46.738;7.622;2023-04-23T04:36:38;5.65;;;3.97;;
30743;SDS011;17486;46.738;7.622;2023-04-23T04:39:05;6.13;;;3.63;;
30743;SDS011;17486;46.738;7.622;2023-04-23T04:41:32;6.15;;;3.92;;
30743;SDS011;17486;46.738;7.622;2023-04-23T04:43:58;3.78;;;3.17;;
30743;SDS011;17486;46.738;7.622;2023-04-23T04:46:23;5.03;;;3.58;;
30743;SDS011;17486;46.738;7.622;2023-04-23T04:48:50;5.55;;;3.83;;
30743;SDS011;17486;46.738;7.622;2023-04-23T04:51:15;7.75;;;3.97;;
30743;SDS011;17486;46.738;7.622;2023-04-23T04:53:41;7.93;;;4.10;;
30743;SDS011;17486;46.738;7.622;2023-04-23T04:56:06;6.78;;;4.40;;
30743;SDS011;17486;46.738;7.622;2023-04-23T04:58:32;6.82;;;3.78;;
30743;SDS011;17486;46.738;7.622;2023-04-23T05:00:58;7.50;;;3.97;;
30743;SDS011;17486;46.738;7.622;2023-04-23T05:03:24;6.53;;;3.92;;
30743;SDS011;17486;46.738;7.622;2023-04-23T05:05:50;6.28;;;3.65;;
30743;SDS011;17486;46.738;7.622;2023-04-23T05:08:15;5.57;;;4.13;;
30743;SDS011;17486;46.738;7.622;2023-04-23T05:10:41;8.82;;;4.10;;
30743;SDS011;17486;46.738;7.622;2023-04-23T05:13:08;6.50;;;4.22;;
30743;SDS011;17486;46.738;7.622;2023-04-23T05:15:34;5.85;;;4.50;;
30743;SDS011;17486;46.738;7.622;2023-04-23T05:18:01;6.03;;;3.90;;
30743;SDS011;17486;46.738;7.622;2023-04-23T05:20:28;6.47;;;4.30;;
30743;SDS011;17486;46.738;7.622;2023-04-23T05:22:54;4.50;;;3.78;;
30743;SDS011;17486;46.738;7.622;2023-04-23T05:25:19;6.00;;;4.10;;
30743;SDS011;17486;46.738;7.622;2023-04-23T05:27:45;7.28;;;4.30;;
30743;SDS011;17486;46.738;7.622;2023-04-23T05:30:10;5.97;;;4.18;;
30743;SDS011;17486;46.738;7.622;2023-04-23T05:32:36;5.65;;;3.88;;
30743;SDS011;17486;46.738;7.622;2023-04-23T05:35:01;5.88;;;4.13;;
30743;SDS011;17486;46.738;7.622;2023-04-23T05:37:28;8.30;;;4.55;;
30743;SDS011;17486;46.738;7.622;2023-04-23T05:39:54;5.63;;;4.15;;
30743;SDS011;17486;46.738;7.622;2023-04-23T05:42:19;6.85;;;3.95;;
30743;SDS011;17486;46.738;7.622;2023-04-23T05:44:45;8.50;;;4.15;;
30743;SDS011;17486;46.738;7.622;2023-04-23T05:47:12;5.18;;;3.78;;
30743;SDS011;17486;46.738;7.622;2023-04-23T05:49:38;5.03;;;4.05;;
30743;SDS011;17486;46.738;7.622;2023-04-23T05:52:03;7.07;;;3.95;;
30743;SDS011;17486;46.738;7.622;2023-04-23T05:54:28;8.27;;;4.00;;
30743;SDS011;17486;46.738;7.622;2023-04-23T05:56:54;4.20;;;3.70;;
30743;SDS011;17486;46.738;7.622;2023-04-23T05:59:19;7.75;;;4.18;;
30743;SDS011;17486;46.738;7.622;2023-04-23T06:01:46;4.55;;;4.00;;
30743;SDS011;17486;46.738;7.622;2023-04-23T06:04:12;4.07;;;3.45;;
30743;SDS011;17486;46.738;7.622;2023-04-23T06:06:38;6.60;;;3.33;;
30743;SDS011;17486;46.738;7.622;2023-04-23T06:09:03;6.60;;;3.55;;
30743;SDS011;17486;46.738;7.622;2023-04-23T06:11:28;4.85;;;3.85;;
30743;SDS011;17486;46.738;7.622;2023-04-23T06:13:56;4.28;;;3.70;;
30743;SDS011;17486;46.738;7.622;2023-04-23T06:16:22;5.50;;;3.40;;
30743;SDS011;17486;46.738;7.622;2023-04-23T06:18:48;5.93;;;3.95;;
30743;SDS011;17486;46.738;7.622;2023-04-23T06:21:13;6.28;;;3.75;;
30743;SDS011;17486;46.738;7.622;2023-04-23T06:23:39;7.45;;;3.30;;
30743;SDS011;17486;46.738;7.622;2023-04-23T06:26:04;6.75;;;3.60;;
30743;SDS011;17486;46.738;7.622;2023-04-23T06:28:30;5.82;;;3.22;;
30743;SDS011;17486;46.738;7.622;2023-04-23T06:30:55;4.20;;;3.30;;
30743;SDS011;17486;46.738;7.622;2023-04-23T06:33:21;6.25;;;3.20;;
30743;SDS011;17486;46.738;7.622;2023-04-23T06:35:46;5.13;;;3.17;;
30743;SDS011;17486;46.738;7.622;2023-04-23T06:38:11;4.10;;;3.00;;
30743;SDS011;17486;46.738;7.622;2023-04-23T06:40:37;6.72;;;3.35;;
30743;SDS011;17486;46.738;7.622;2023-04-23T06:43:02;5.20;;;3.50;;
30743;SDS011;17486;46.738;7.622;2023-04-23T06:45:32;5.50;;;3.58;;
30743;SDS011;17486;46.738;7.622;2023-04-23T06:47:58;4.85;;;3.67;;
30743;SDS011;17486;46.738;7.622;2023-04-23T06:50:23;5.60;;;4.28;;
30743;SDS011;17486;46.738;7.622;2023-04-23T06:52:49;4.13;;;3.38;;
30743;SDS011;17486;46.738;7.622;2023-04-23T06:55:14;5.25;;;3.40;;
30743;SDS011;17486;46.738;7.622;2023-04-23T06:57:40;100.20;;;70.40;;
30743;SDS011;17486;46.738;7.622;2023-04-23T07:00:06;144.40;;;93.18;;
30743;SDS011;17486;46.738;7.622;2023-04-23T07:02:33;141.85;;;92.43;;
30743;SDS011;17486;46.738;7.622;2023-04-23T07:04:58;65.10;;;40.88;;
30743;SDS011;17486;46.738;7.622;2023-04-23T07:07:23;19.45;;;13.10;;
30743;SDS011;17486;46.738;7.622;2023-04-23T07:09:49;8.82;;;6.68;;
30743;SDS011;17486;46.738;7.622;2023-04-23T07:12:14;5.68;;;4.78;;
30743;SDS011;17486;46.738;7.622;2023-04-23T07:14:39;6.22;;;3.72;;
30743;SDS011;17486;46.738;7.622;2023-04-23T07:17:05;5.13;;;3.13;;
30743;SDS011;17486;46.738;7.622;2023-04-23T07:19:30;5.05;;;3.00;;
30743;SDS011;17486;46.738;7.622;2023-04-23T07:21:56;3.72;;;3.10;;
30743;SDS011;17486;46.738;7.622;2023-04-23T07:24:21;3.50;;;3.05;;
30743;SDS011;17486;46.738;7.622;2023-04-23T07:26:46;4.05;;;3.33;;
30743;SDS011;17486;46.738;7.622;2023-04-23T07:29:12;4.68;;;3.30;;
30743;SDS011;17486;46.738;7.622;2023-04-23T07:31:38;5.55;;;3.47;;
30743;SDS011;17486;46.738;7.622;2023-04-23T07:34:05;10.10;;;4.18;;
30743;SDS011;17486;46.738;7.622;2023-04-23T07:36:31;7.53;;;4.30;;
30743;SDS011;17486;46.738;7.622;2023-04-23T07:38:57;7.50;;;4.38;;
30743;SDS011;17486;46.738;7.622;2023-04-23T07:41:23;4.95;;;3.75;;
30743;SDS011;17486;46.738;7.622;2023-04-23T07:43:49;6.25;;;3.90;;
30743;SDS011;17486;46.738;7.622;2023-04-23T07:46:14;6.13;;;4.03;;
30743;SDS011;17486;46.738;7.622;2023-04-23T07:48:40;5.63;;;4.15;;
30743;SDS011;17486;46.738;7.622;2023-04-23T07:51:05;6.28;;;4.22;;
30743;SDS011;17486;46.738;7.622;2023-04-23T07:53:30;5.30;;;4.13;;
30743;SDS011;17486;46.738;7.622;2023-04-23T07:55:56;6.68;;;3.80;;
30743;SDS011;17486;46.738;7.622;2023-04-23T07:58:23;4.18;;;3.78;;
30743;SDS011;17486;46.738;7.622;2023-04-23T08:00:49;5.63;;;3.30;;
30743;SDS011;17486;46.738;7.622;2023-04-23T08:03:14;4.20;;;3.35;;
30743;SDS011;17486;46.738;7.622;2023-04-23T08:05:40;8.73;;;4.05;;
30743;SDS011;17486;46.738;7.622;2023-04-23T08:08:06;4.18;;;3.65;;
30743;SDS011;17486;46.738;7.622;2023-04-23T08:10:32;6.30;;;4.05;;
30743;SDS011;17486;46.738;7.622;2023-04-23T08:12:58;5.80;;;4.70;;
30743;SDS011;17486;46.738;7.622;2023-04-23T08:15:24;6.13;;;4.80;;
30743;SDS011;17486;46.738;7.622;2023-04-23T08:17:49;8.80;;;4.47;;
30743;SDS011;17486;46.738;7.622;2023-04-23T08:20:15;5.10;;;3.85;;
30743;SDS011;17486;46.738;7.622;2023-04-23T08:22:40;5.47;;;3.53;;
30743;SDS011;17486;46.738;7.622;2023-04-23T08:25:06;7.93;;;3.35;;
30743;SDS011;17486;46.738;7.622;2023-04-23T08:27:31;6.55;;;3.50;;
30743;SDS011;17486;46.738;7.622;2023-04-23T08:29:57;7.05;;;3.60;;
30743;SDS011;17486;46.738;7.622;2023-04-23T08:32:22;5.82;;;3.38;;
30743;SDS011;17486;46.738;7.622;2023-04-23T08:34:48;6.07;;;3.50;;
30743;SDS011;17486;46.738;7.622;2023-04-23T08:37:13;7.15;;;4.03;;
30743;SDS011;17486;46.738;7.622;2023-04-23T08:39:38;8.50;;;4.15;;
30743;SDS011;17486;46.738;7.622;2023-04-23T08:45:10;4.88;;;3.38;;
30743;SDS011;17486;46.738;7.622;2023-04-23T08:47:38;7.50;;;3.90;;
30743;SDS011;17486;46.738;7.622;2023-04-23T08:50:07;6.35;;;4.00;;
30743;SDS011;17486;46.738;7.622;2023-04-23T08:52:34;6.30;;;4.07;;
30743;SDS011;17486;46.738;7.622;2023-04-23T08:55:06;6.38;;;3.75;;
30743;SDS011;17486;46.738;7.622;2023-04-23T08:57:34;5.45;;;4.13;;
30743;SDS011;17486;46.738;7.622;2023-04-23T09:00:02;5.78;;;4.03;;
30743;SDS011;17486;46.738;7.622;2023-04-23T09:02:33;6.13;;;3.85;;
30743;SDS011;17486;46.738;7.622;2023-04-23T09:05:01;6.40;;;3.50;;
30743;SDS011;17486;46.738;7.622;2023-04-23T09:07:28;6.28;;;3.97;;
30743;SDS011;17486;46.738;7.622;2023-04-23T09:09:54;6.07;;;3.90;;
30743;SDS011;17486;46.738;7.622;2023-04-23T09:12:20;6.63;;;4.13;;
30743;SDS011;17486;46.738;7.622;2023-04-23T09:14:46;7.40;;;4.05;;
30743;SDS011;17486;46.738;7.622;2023-04-23T09:17:11;11.05;;;4.03;;
30743;SDS011;17486;46.738;7.622;2023-04-23T09:19:37;10.85;;;4.43;;
30743;SDS011;17486;46.738;7.622;2023-04-23T09:22:03;8.35;;;3.97;;
30743;SDS011;17486;46.738;7.622;2023-04-23T09:24:28;6.78;;;4.10;;
30743;SDS011;17486;46.738;7.622;2023-04-23T09:26:55;7.45;;;4.20;;
30743;SDS011;17486;46.738;7.622;2023-04-23T09:29:22;7.20;;;3.88;;
30743;SDS011;17486;46.738;7.622;2023-04-23T09:31:53;6.55;;;3.97;;
30743;SDS011;17486;46.738;7.622;2023-04-23T09:34:20;10.23;;;4.57;;
30743;SDS011;17486;46.738;7.622;2023-04-23T09:36:48;6.53;;;3.60;;
30743;SDS011;17486;46.738;7.622;2023-04-23T09:39:15;283.58;;;212.63;;
30743;SDS011;17486;46.738;7.622;2023-04-23T09:41:46;239.23;;;172.73;;
30743;SDS011;17486;46.738;7.622;2023-04-23T09:44:13;107.95;;;79.55;;
30743;SDS011;17486;46.738;7.622;2023-04-23T09:46:42;24.10;;;17.98;;
30743;SDS011;17486;46.738;7.622;2023-04-23T09:49:09;10.13;;;6.00;;
30743;SDS011;17486;46.738;7.622;2023-04-23T09:51:38;5.15;;;3.40;;
30743;SDS011;17486;46.738;7.622;2023-04-23T09:54:19;4.93;;;3.13;;
30743;SDS011;17486;46.738;7.622;2023-04-23T09:56:51;4.35;;;3.50;;
30743;SDS011;17486;46.738;7.622;2023-04-23T09:59:24;5.50;;;3.40;;
30743;SDS011;17486;46.738;7.622;2023-04-23T10:01:51;4.70;;;3.08;;
30743;SDS011;17486;46.738;7.622;2023-04-23T10:04:18;4.97;;;3.17;;
30743;SDS011;17486;46.738;7.622;2023-04-23T10:06:45;3.83;;;3.35;;
30743;SDS011;17486;46.738;7.622;2023-04-23T10:09:11;6.75;;;3.60;;
30743;SDS011;17486;46.738;7.622;2023-04-23T10:11:37;5.22;;;3.78;;
30743;SDS011;17486;46.738;7.622;2023-04-23T10:14:03;6.53;;;3.85;;
30743;SDS011;17486;46.738;7.622;2023-04-23T10:16:28;6.15;;;3.47;;
30743;SDS011;17486;46.738;7.622;2023-04-23T10:18:54;6.78;;;3.40;;
30743;SDS011;17486;46.738;7.622;2023-04-23T10:21:24;5.65;;;3.42;;
30743;SDS011;17486;46.738;7.622;2023-04-23T10:23:53;4.53;;;3.30;;
30743;SDS011;17486;46.738;7.622;2023-04-23T10:26:21;5.32;;;3.65;;
30743;SDS011;17486;46.738;7.622;2023-04-23T10:28:48;4.43;;;2.95;;
30743;SDS011;17486;46.738;7.622;2023-04-23T10:31:17;5.82;;;3.25;;
30743;SDS011;17486;46.738;7.622;2023-04-23T10:33:44;5.18;;;2.85;;
30743;SDS011;17486;46.738;7.622;2023-04-23T10:36:11;4.90;;;2.90;;
30743;SDS011;17486;46.738;7.622;2023-04-23T10:38:37;6.97;;;3.33;;
30743;SDS011;17486;46.738;7.622;2023-04-23T10:41:05;4.30;;;3.13;;
30743;SDS011;17486;46.738;7.622;2023-04-23T10:43:32;2.83;;;2.30;;
30743;SDS011;17486;46.738;7.622;2023-04-23T10:45:59;4.05;;;3.08;;
30743;SDS011;17486;46.738;7.622;2023-04-23T10:48:26;6.28;;;2.97;;
30743;SDS011;17486;46.738;7.622;2023-04-23T10:50:58;81.32;;;56.13;;
30743;SDS011;17486;46.738;7.622;2023-04-23T10:53:23;160.82;;;118.10;;
30743;SDS011;17486;46.738;7.622;2023-04-23T10:55:50;50.22;;;38.53;;
30743;SDS011;17486;46.738;7.622;2023-04-23T10:58:46;9.85;;;7.88;;
30743;SDS011;17486;46.738;7.622;2023-04-23T11:01:12;6.70;;;3.10;;
30743;SDS011;17486;46.738;7.622;2023-04-23T11:03:38;5.18;;;2.70;;
30743;SDS011;17486;46.738;7.622;2023-04-23T11:06:05;6.13;;;2.70;;
30743;SDS011;17486;46.738;7.622;2023-04-23T11:08:31;6.15;;;2.72;;
30743;SDS011;17486;46.738;7.622;2023-04-23T11:10:59;4.10;;;2.53;;
30743;SDS011;17486;46.738;7.622;2023-04-23T11:13:26;5.50;;;2.78;;
30743;SDS011;17486;46.738;7.622;2023-04-23T11:18:58;4.15;;;2.67;;
30743;SDS011;17486;46.738;7.622;2023-04-23T11:24:32;6.60;;;2.83;;
30743;SDS011;17486;46.738;7.622;2023-04-23T11:27:01;3.67;;;2.00;;
30743;SDS011;17486;46.738;7.622;2023-04-23T11:29:29;4.47;;;2.28;;
30743;SDS011;17486;46.738;7.622;2023-04-23T11:31:55;3.28;;;2.17;;
30743;SDS011;17486;46.738;7.622;2023-04-23T11:34:20;4.63;;;2.50;;
30743;SDS011;17486;46.738;7.622;2023-04-23T11:36:50;4.15;;;2.30;;
30743;SDS011;17486;46.738;7.622;2023-04-23T11:39:19;2.85;;;2.20;;
30743;SDS011;17486;46.738;7.622;2023-04-23T11:41:45;2.67;;;2.00;;
30743;SDS011;17486;46.738;7.622;2023-04-23T11:44:14;2.58;;;2.28;;
30743;SDS011;17486;46.738;7.622;2023-04-23T11:46:41;4.68;;;2.55;;
30743;SDS011;17486;46.738;7.622;2023-04-23T11:49:06;3.25;;;2.33;;
30743;SDS011;17486;46.738;7.622;2023-04-23T11:51:39;3.55;;;2.10;;
30743;SDS011;17486;46.738;7.622;2023-04-23T11:54:06;2.70;;;2.13;;
30743;SDS011;17486;46.738;7.622;2023-04-23T11:56:32;4.88;;;2.30;;
30743;SDS011;17486;46.738;7.622;2023-04-23T11:58:59;4.15;;;2.20;;
30743;SDS011;17486;46.738;7.622;2023-04-23T12:01:37;4.07;;;2.38;;
30743;SDS011;17486;46.738;7.622;2023-04-23T12:04:12;3.67;;;2.20;;
30743;SDS011;17486;46.738;7.622;2023-04-23T12:06:40;3.78;;;1.92;;
30743;SDS011;17486;46.738;7.622;2023-04-23T12:09:06;5.07;;;2.50;;
30743;SDS011;17486;46.738;7.622;2023-04-23T12:11:33;3.92;;;2.00;;
30743;SDS011;17486;46.738;7.622;2023-04-23T12:13:59;3.80;;;2.25;;
30743;SDS011;17486;46.738;7.622;2023-04-23T12:16:38;5.10;;;2.30;;
30743;SDS011;17486;46.738;7.622;2023-04-23T12:19:18;6.57;;;2.40;;
30743;SDS011;17486;46.738;7.622;2023-04-23T12:24:23;4.38;;;2.10;;
30743;SDS011;17486;46.738;7.622;2023-04-23T12:26:53;2.13;;;1.75;;
30743;SDS011;17486;46.738;7.622;2023-04-23T12:29:20;3.40;;;2.10;;
30743;SDS011;17486;46.738;7.622;2023-04-23T12:31:47;3.13;;;2.35;;
30743;SDS011;17486;46.738;7.622;2023-04-23T12:34:13;3.30;;;2.15;;
30743;SDS011;17486;46.738;7.622;2023-04-23T12:36:43;2.83;;;2.15;;
30743;SDS011;17486;46.738;7.622;2023-04-23T12:39:26;3.25;;;2.60;;
30743;SDS011;17486;46.738;7.622;2023-04-23T12:41:59;3.50;;;2.13;;
30743;SDS011;17486;46.738;7.622;2023-04-23T12:44:30;4.15;;;2.22;;
30743;SDS011;17486;46.738;7.622;2023-04-23T12:46:58;5.15;;;2.28;;
30743;SDS011;17486;46.738;7.622;2023-04-23T12:49:27;3.90;;;2.15;;
30743;SDS011;17486;46.738;7.622;2023-04-23T12:51:56;3.60;;;2.15;;
30743;SDS011;17486;46.738;7.622;2023-04-23T12:54:25;3.28;;;2.22;;
30743;SDS011;17486;46.738;7.622;2023-04-23T12:56:52;3.60;;;2.42;;
30743;SDS011;17486;46.738;7.622;2023-04-23T12:59:17;3.53;;;1.98;;
30743;SDS011;17486;46.738;7.622;2023-04-23T13:01:43;4.13;;;2.05;;
30743;SDS011;17486;46.738;7.622;2023-04-23T13:04:08;5.20;;;2.50;;
30743;SDS011;17486;46.738;7.622;2023-04-23T13:06:34;3.33;;;2.35;;
30743;SDS011;17486;46.738;7.622;2023-04-23T13:09:00;4.15;;;2.30;;
30743;SDS011;17486;46.738;7.622;2023-04-23T13:11:29;5.30;;;2.05;;
30743;SDS011;17486;46.738;7.622;2023-04-23T13:13:54;5.72;;;2.50;;
30743;SDS011;17486;46.738;7.622;2023-04-23T13:16:19;5.63;;;2.72;;
30743;SDS011;17486;46.738;7.622;2023-04-23T13:18:45;5.70;;;2.50;;
30743;SDS011;17486;46.738;7.622;2023-04-23T13:21:10;2.45;;;2.05;;
30743;SDS011;17486;46.738;7.622;2023-04-23T13:23:36;4.68;;;2.10;;
30743;SDS011;17486;46.738;7.622;2023-04-23T13:26:02;3.28;;;2.22;;
30743;SDS011;17486;46.738;7.622;2023-04-23T13:28:30;3.58;;;2.03;;
30743;SDS011;17486;46.738;7.622;2023-04-23T13:30:56;2.55;;;1.80;;
30743;SDS011;17486;46.738;7.622;2023-04-23T13:33:21;6.45;;;2.10;;
30743;SDS011;17486;46.738;7.622;2023-04-23T13:35:46;3.30;;;2.30;;
30743;SDS011;17486;46.738;7.622;2023-04-23T13:38:12;3.30;;;1.90;;
30743;SDS011;17486;46.738;7.622;2023-04-23T13:40:37;4.47;;;2.08;;
30743;SDS011;17486;46.738;7.622;2023-04-23T13:43:03;3.30;;;1.85;;
30743;SDS011;17486;46.738;7.622;2023-04-23T13:45:28;4.35;;;2.05;;
30743;SDS011;17486;46.738;7.622;2023-04-23T13:47:54;2.88;;;1.73;;
30743;SDS011;17486;46.738;7.622;2023-04-23T13:50:19;2.70;;;2.10;;
30743;SDS011;17486;46.738;7.622;2023-04-23T13:52:45;2.28;;;2.08;;
30743;SDS011;17486;46.738;7.622;2023-04-23T13:55:11;2.17;;;2.00;;
30743;SDS011;17486;46.738;7.622;2023-04-23T13:57:37;4.50;;;2.05;;
30743;SDS011;17486;46.738;7.622;2023-04-23T14:00:03;3.47;;;2.05;;
30743;SDS011;17486;46.738;7.622;2023-04-23T14:02:29;2.72;;;2.10;;
30743;SDS011;17486;46.738;7.622;2023-04-23T14:04:55;4.18;;;1.95;;
30743;SDS011;17486;46.738;7.622;2023-04-23T14:07:21;3.30;;;2.20;;
30743;SDS011;17486;46.738;7.622;2023-04-23T14:09:46;3.00;;;2.00;;
30743;SDS011;17486;46.738;7.622;2023-04-23T14:12:16;4.00;;;2.47;;
30743;SDS011;17486;46.738;7.622;2023-04-23T14:14:42;5.22;;;2.47;;
30743;SDS011;17486;46.738;7.622;2023-04-23T14:17:08;2.88;;;2.13;;
30743;SDS011;17486;46.738;7.622;2023-04-23T14:19:33;5.03;;;2.75;;
30743;SDS011;17486;46.738;7.622;2023-04-23T14:22:01;5.85;;;2.60;;
30743;SDS011;17486;46.738;7.622;2023-04-23T14:24:27;2.85;;;2.60;;
30743;SDS011;17486;46.738;7.622;2023-04-23T14:26:57;2.95;;;2.17;;
30743;SDS011;17486;46.738;7.622;2023-04-23T14:29:23;4.78;;;2.75;;
30743;SDS011;17486;46.738;7.622;2023-04-23T14:31:54;6.40;;;2.60;;
30743;SDS011;17486;46.738;7.622;2023-04-23T14:34:20;3.58;;;2.33;;
30743;SDS011;17486;46.738;7.622;2023-04-23T14:36:45;4.88;;;2.55;;
30743;SDS011;17486;46.738;7.622;2023-04-23T14:39:13;4.18;;;2.75;;
30743;SDS011;17486;46.738;7.622;2023-04-23T14:41:39;4.82;;;2.53;;
30743;SDS011;17486;46.738;7.622;2023-04-23T14:44:05;5.30;;;2.55;;
30743;SDS011;17486;46.738;7.622;2023-04-23T14:46:30;4.53;;;2.30;;
30743;SDS011;17486;46.738;7.622;2023-04-23T14:48:56;3.38;;;2.05;;
30743;SDS011;17486;46.738;7.622;2023-04-23T14:51:22;6.85;;;2.65;;
30743;SDS011;17486;46.738;7.622;2023-04-23T14:53:48;4.45;;;2.78;;